sensor_id;sensor_type;location;lat;lon;timestamp;P1;durP1;ratioP1;P2;durP2;ratioP2
5971;SDS011;3012;49.944;8.454;2023-11-18T00:00:53;21.17;;;14.13;;
5971;SDS011;3012;49.944;8.454;2023-11-18T00:03:23;18.70;;;13.07;;
5971;SDS011;3012;49.944;8.454;2023-11-18T00:05:51;17.27;;;12.30;;
5971;SDS011;3012;49.944;8.454;2023-11-18T00:08:19;21.23;;;13.60;;
5971;SDS011;3012;49.944;8.454;2023-11-18T00:10:47;25.83;;;13.10;;
5971;SDS011;3012;49.944;8.454;2023-11-18T00:13:15;20.87;;;14.40;;
5971;SDS011;3012;49.944;8.454;2023-11-18T00:15:42;17.90;;;13.23;;
5971;SDS011;3012;49.944;8.454;2023-11-18T00:18:12;19.03;;;13.20;;
5971;SDS011;3012;49.944;8.454;2023-11-18T00:20:42;19.10;;;13.10;;
5971;SDS011;3012;49.944;8.454;2023-11-18T00:23:10;21.53;;;12.83;;
5971;SDS011;3012;49.944;8.454;2023-11-18T00:25:39;20.67;;;13.60;;
5971;SDS011;3012;49.944;8.454;2023-11-18T00:28:07;21.20;;;13.57;;
5971;SDS011;3012;49.944;8.454;2023-11-18T00:30:35;26.00;;;14.40;;
5971;SDS011;3012;49.944;8.454;2023-11-18T00:33:02;19.50;;;13.73;;
5971;SDS011;3012;49.944;8.454;2023-11-18T00:35:31;21.97;;;13.73;;
5971;SDS011;3012;49.944;8.454;2023-11-18T00:38:01;24.23;;;14.73;;
5971;SDS011;3012;49.944;8.454;2023-11-18T00:40:29;23.93;;;13.83;;
5971;SDS011;3012;49.944;8.454;2023-11-18T00:42:57;18.23;;;13.23;;
5971;SDS011;3012;49.944;8.454;2023-11-18T00:45:25;20.90;;;14.47;;
5971;SDS011;3012;49.944;8.454;2023-11-18T00:47:55;19.77;;;12.83;;
5971;SDS011;3012;49.944;8.454;2023-11-18T00:50:23;23.53;;;14.77;;
5971;SDS011;3012;49.944;8.454;2023-11-18T00:52:51;18.10;;;12.73;;
5971;SDS011;3012;49.944;8.454;2023-11-18T00:55:20;19.53;;;13.07;;
5971;SDS011;3012;49.944;8.454;2023-11-18T00:57:48;20.80;;;13.47;;
5971;SDS011;3012;49.944;8.454;2023-11-18T01:00:16;18.90;;;13.07;;
5971;SDS011;3012;49.944;8.454;2023-11-18T01:02:48;17.80;;;12.60;;
5971;SDS011;3012;49.944;8.454;2023-11-18T01:05:17;22.20;;;12.43;;
5971;SDS011;3012;49.944;8.454;2023-11-18T01:07:45;20.83;;;13.73;;
5971;SDS011;3012;49.944;8.454;2023-11-18T01:10:13;16.60;;;12.10;;
5971;SDS011;3012;49.944;8.454;2023-11-18T01:12:42;19.53;;;12.13;;
5971;SDS011;3012;49.944;8.454;2023-11-18T01:15:11;23.67;;;13.63;;
5971;SDS011;3012;49.944;8.454;2023-11-18T01:17:40;21.13;;;13.33;;
5971;SDS011;3012;49.944;8.454;2023-11-18T01:20:09;19.43;;;12.60;;
5971;SDS011;3012;49.944;8.454;2023-11-18T01:22:39;18.27;;;12.20;;
5971;SDS011;3012;49.944;8.454;2023-11-18T01:25:09;17.80;;;12.20;;
5971;SDS011;3012;49.944;8.454;2023-11-18T01:27:37;19.60;;;12.87;;
5971;SDS011;3012;49.944;8.454;2023-11-18T01:30:08;15.60;;;11.40;;
5971;SDS011;3012;49.944;8.454;2023-11-18T01:32:37;19.70;;;11.57;;
5971;SDS011;3012;49.944;8.454;2023-11-18T01:35:06;21.60;;;12.53;;
5971;SDS011;3012;49.944;8.454;2023-11-18T01:37:37;20.53;;;12.80;;
5971;SDS011;3012;49.944;8.454;2023-11-18T01:40:05;22.77;;;12.70;;
5971;SDS011;3012;49.944;8.454;2023-11-18T01:42:34;19.23;;;11.47;;
5971;SDS011;3012;49.944;8.454;2023-11-18T01:45:03;18.90;;;12.67;;
5971;SDS011;3012;49.944;8.454;2023-11-18T01:47:36;21.40;;;13.23;;
5971;SDS011;3012;49.944;8.454;2023-11-18T01:50:04;25.37;;;13.20;;
5971;SDS011;3012;49.944;8.454;2023-11-18T01:52:34;18.70;;;12.97;;
5971;SDS011;3012;49.944;8.454;2023-11-18T01:55:03;18.30;;;12.73;;
5971;SDS011;3012;49.944;8.454;2023-11-18T01:57:33;18.03;;;13.17;;
5971;SDS011;3012;49.944;8.454;2023-11-18T02:00:03;17.30;;;11.87;;
5971;SDS011;3012;49.944;8.454;2023-11-18T02:02:32;16.23;;;11.27;;
5971;SDS011;3012;49.944;8.454;2023-11-18T02:05:03;13.57;;;10.03;;
5971;SDS011;3012;49.944;8.454;2023-11-18T02:07:32;18.00;;;10.03;;
5971;SDS011;3012;49.944;8.454;2023-11-18T02:10:02;14.73;;;10.13;;
5971;SDS011;3012;49.944;8.454;2023-11-18T02:12:37;11.40;;;9.50;;
5971;SDS011;3012;49.944;8.454;2023-11-18T02:15:10;15.93;;;10.70;;
5971;SDS011;3012;49.944;8.454;2023-11-18T02:17:39;15.43;;;10.63;;
5971;SDS011;3012;49.944;8.454;2023-11-18T02:20:11;17.70;;;10.60;;
5971;SDS011;3012;49.944;8.454;2023-11-18T02:22:42;18.40;;;12.20;;
5971;SDS011;3012;49.944;8.454;2023-11-18T02:25:10;16.27;;;11.40;;
5971;SDS011;3012;49.944;8.454;2023-11-18T02:27:45;19.07;;;11.50;;
5971;SDS011;3012;49.944;8.454;2023-11-18T02:30:14;13.43;;;10.43;;
5971;SDS011;3012;49.944;8.454;2023-11-18T02:32:45;15.87;;;11.60;;
5971;SDS011;3012;49.944;8.454;2023-11-18T02:35:20;18.27;;;11.10;;
5971;SDS011;3012;49.944;8.454;2023-11-18T02:37:53;17.27;;;10.87;;
5971;SDS011;3012;49.944;8.454;2023-11-18T02:40:25;23.60;;;11.87;;
5971;SDS011;3012;49.944;8.454;2023-11-18T02:43:00;18.10;;;11.37;;
5971;SDS011;3012;49.944;8.454;2023-11-18T02:45:31;16.97;;;11.77;;
5971;SDS011;3012;49.944;8.454;2023-11-18T02:48:00;16.00;;;10.27;;
5971;SDS011;3012;49.944;8.454;2023-11-18T02:50:28;20.10;;;12.03;;
5971;SDS011;3012;49.944;8.454;2023-11-18T02:52:58;17.00;;;11.73;;
5971;SDS011;3012;49.944;8.454;2023-11-18T02:55:26;19.50;;;11.17;;
5971;SDS011;3012;49.944;8.454;2023-11-18T02:57:54;20.43;;;12.13;;
5971;SDS011;3012;49.944;8.454;2023-11-18T03:00:24;16.97;;;11.73;;
5971;SDS011;3012;49.944;8.454;2023-11-18T03:02:52;19.60;;;11.87;;
5971;SDS011;3012;49.944;8.454;2023-11-18T03:05:20;19.13;;;12.50;;
5971;SDS011;3012;49.944;8.454;2023-11-18T03:07:48;22.30;;;12.83;;
5971;SDS011;3012;49.944;8.454;2023-11-18T03:10:19;21.67;;;12.87;;
5971;SDS011;3012;49.944;8.454;2023-11-18T03:12:48;22.00;;;12.97;;
5971;SDS011;3012;49.944;8.454;2023-11-18T03:15:17;19.93;;;12.10;;
5971;SDS011;3012;49.944;8.454;2023-11-18T03:17:47;16.10;;;12.07;;
5971;SDS011;3012;49.944;8.454;2023-11-18T03:20:16;21.00;;;13.97;;
5971;SDS011;3012;49.944;8.454;2023-11-18T03:22:45;24.40;;;13.67;;
5971;SDS011;3012;49.944;8.454;2023-11-18T03:25:14;19.03;;;12.73;;
5971;SDS011;3012;49.944;8.454;2023-11-18T03:27:43;19.63;;;12.63;;
5971;SDS011;3012;49.944;8.454;2023-11-18T03:30:11;20.37;;;12.80;;
5971;SDS011;3012;49.944;8.454;2023-11-18T03:32:39;18.80;;;12.80;;
5971;SDS011;3012;49.944;8.454;2023-11-18T03:35:09;18.77;;;12.87;;
5971;SDS011;3012;49.944;8.454;2023-11-18T03:37:37;18.80;;;12.43;;
5971;SDS011;3012;49.944;8.454;2023-11-18T03:40:08;23.20;;;13.63;;
5971;SDS011;3012;49.944;8.454;2023-11-18T03:42:37;20.37;;;13.40;;
5971;SDS011;3012;49.944;8.454;2023-11-18T03:45:06;21.43;;;13.37;;
5971;SDS011;3012;49.944;8.454;2023-11-18T03:47:36;22.73;;;12.30;;
5971;SDS011;3012;49.944;8.454;2023-11-18T03:50:05;21.17;;;13.50;;
5971;SDS011;3012;49.944;8.454;2023-11-18T03:52:36;18.10;;;12.13;;
5971;SDS011;3012;49.944;8.454;2023-11-18T03:55:05;18.60;;;12.13;;
5971;SDS011;3012;49.944;8.454;2023-11-18T03:57:34;21.70;;;12.83;;
5971;SDS011;3012;49.944;8.454;2023-11-18T04:00:02;19.97;;;12.90;;
5971;SDS011;3012;49.944;8.454;2023-11-18T04:02:31;21.03;;;12.07;;
5971;SDS011;3012;49.944;8.454;2023-11-18T04:05:00;20.47;;;12.77;;
5971;SDS011;3012;49.944;8.454;2023-11-18T04:07:29;23.20;;;12.57;;
5971;SDS011;3012;49.944;8.454;2023-11-18T04:09:59;17.80;;;12.47;;
5971;SDS011;3012;49.944;8.454;2023-11-18T04:12:27;24.00;;;12.90;;
5971;SDS011;3012;49.944;8.454;2023-11-18T04:14:56;17.20;;;11.20;;
5971;SDS011;3012;49.944;8.454;2023-11-18T04:17:25;24.20;;;12.00;;
5971;SDS011;3012;49.944;8.454;2023-11-18T04:19:54;18.27;;;11.07;;
5971;SDS011;3012;49.944;8.454;2023-11-18T04:22:23;20.10;;;10.27;;
5971;SDS011;3012;49.944;8.454;2023-11-18T04:24:51;15.63;;;10.50;;
5971;SDS011;3012;49.944;8.454;2023-11-18T04:27:20;13.97;;;10.83;;
5971;SDS011;3012;49.944;8.454;2023-11-18T04:29:49;14.67;;;9.80;;
5971;SDS011;3012;49.944;8.454;2023-11-18T04:32:17;14.87;;;10.33;;
5971;SDS011;3012;49.944;8.454;2023-11-18T04:34:45;15.23;;;10.53;;
5971;SDS011;3012;49.944;8.454;2023-11-18T04:37:15;14.83;;;9.53;;
5971;SDS011;3012;49.944;8.454;2023-11-18T04:39:43;13.70;;;9.80;;
5971;SDS011;3012;49.944;8.454;2023-11-18T04:42:11;14.10;;;9.40;;
5971;SDS011;3012;49.944;8.454;2023-11-18T04:44:40;13.57;;;9.33;;
5971;SDS011;3012;49.944;8.454;2023-11-18T04:47:08;14.00;;;9.53;;
5971;SDS011;3012;49.944;8.454;2023-11-18T04:49:37;10.40;;;8.50;;
5971;SDS011;3012;49.944;8.454;2023-11-18T04:52:05;13.43;;;9.20;;
5971;SDS011;3012;49.944;8.454;2023-11-18T04:54:33;15.23;;;9.43;;
5971;SDS011;3012;49.944;8.454;2023-11-18T04:57:01;14.97;;;8.83;;
5971;SDS011;3012;49.944;8.454;2023-11-18T04:59:29;15.00;;;9.43;;
5971;SDS011;3012;49.944;8.454;2023-11-18T05:01:59;12.33;;;9.03;;
5971;SDS011;3012;49.944;8.454;2023-11-18T05:04:29;12.20;;;8.67;;
5971;SDS011;3012;49.944;8.454;2023-11-18T05:06:57;12.03;;;8.23;;
5971;SDS011;3012;49.944;8.454;2023-11-18T05:09:25;13.47;;;9.73;;
5971;SDS011;3012;49.944;8.454;2023-11-18T05:11:53;18.60;;;9.37;;
5971;SDS011;3012;49.944;8.454;2023-11-18T05:14:21;13.63;;;8.87;;
5971;SDS011;3012;49.944;8.454;2023-11-18T05:16:49;14.20;;;10.03;;
5971;SDS011;3012;49.944;8.454;2023-11-18T05:19:18;21.87;;;10.27;;
5971;SDS011;3012;49.944;8.454;2023-11-18T05:21:46;14.27;;;10.40;;
5971;SDS011;3012;49.944;8.454;2023-11-18T05:24:16;17.20;;;9.63;;
5971;SDS011;3012;49.944;8.454;2023-11-18T05:26:44;15.87;;;9.67;;
5971;SDS011;3012;49.944;8.454;2023-11-18T05:29:12;15.90;;;9.87;;
5971;SDS011;3012;49.944;8.454;2023-11-18T05:31:43;19.47;;;10.20;;
5971;SDS011;3012;49.944;8.454;2023-11-18T05:34:11;19.10;;;10.77;;
5971;SDS011;3012;49.944;8.454;2023-11-18T05:36:41;16.70;;;9.67;;
5971;SDS011;3012;49.944;8.454;2023-11-18T05:39:10;22.07;;;11.50;;
5971;SDS011;3012;49.944;8.454;2023-11-18T05:41:41;18.47;;;10.80;;
5971;SDS011;3012;49.944;8.454;2023-11-18T05:44:12;25.13;;;12.33;;
5971;SDS011;3012;49.944;8.454;2023-11-18T05:46:44;18.93;;;11.67;;
5971;SDS011;3012;49.944;8.454;2023-11-18T05:49:14;21.17;;;11.03;;
5971;SDS011;3012;49.944;8.454;2023-11-18T05:51:43;24.50;;;12.33;;
5971;SDS011;3012;49.944;8.454;2023-11-18T05:54:12;19.97;;;12.07;;
5971;SDS011;3012;49.944;8.454;2023-11-18T05:56:40;17.73;;;10.90;;
5971;SDS011;3012;49.944;8.454;2023-11-18T18:58:10;6.50;;;3.60;;
5971;SDS011;3012;49.944;8.454;2023-11-18T19:00:38;7.13;;;3.57;;
5971;SDS011;3012;49.944;8.454;2023-11-18T19:03:07;6.00;;;3.50;;
5971;SDS011;3012;49.944;8.454;2023-11-18T19:05:35;4.43;;;3.33;;
5971;SDS011;3012;49.944;8.454;2023-11-18T19:08:03;7.17;;;3.40;;
5971;SDS011;3012;49.944;8.454;2023-11-18T19:10:31;7.13;;;3.10;;
5971;SDS011;3012;49.944;8.454;2023-11-18T19:12:59;8.30;;;3.03;;
5971;SDS011;3012;49.944;8.454;2023-11-18T19:15:31;4.17;;;3.83;;
5971;SDS011;3012;49.944;8.454;2023-11-18T19:17:59;4.00;;;3.60;;
5971;SDS011;3012;49.944;8.454;2023-11-18T19:20:28;7.60;;;4.80;;
5971;SDS011;3012;49.944;8.454;2023-11-18T19:22:56;13.63;;;6.27;;
5971;SDS011;3012;49.944;8.454;2023-11-18T19:25:25;10.40;;;5.27;;
5971;SDS011;3012;49.944;8.454;2023-11-18T19:27:53;4.93;;;3.37;;
5971;SDS011;3012;49.944;8.454;2023-11-18T19:30:21;6.93;;;3.67;;
5971;SDS011;3012;49.944;8.454;2023-11-18T19:32:50;5.97;;;3.80;;
5971;SDS011;3012;49.944;8.454;2023-11-18T19:35:18;3.83;;;3.57;;
5971;SDS011;3012;49.944;8.454;2023-11-18T19:37:46;4.70;;;3.57;;
5971;SDS011;3012;49.944;8.454;2023-11-18T19:40:15;7.23;;;2.80;;
5971;SDS011;3012;49.944;8.454;2023-11-18T19:42:42;6.47;;;3.93;;
5971;SDS011;3012;49.944;8.454;2023-11-18T19:45:10;6.90;;;6.03;;
5971;SDS011;3012;49.944;8.454;2023-11-18T19:47:39;6.03;;;4.83;;
5971;SDS011;3012;49.944;8.454;2023-11-18T19:50:09;3.67;;;3.37;;
5971;SDS011;3012;49.944;8.454;2023-11-18T19:52:38;10.43;;;3.87;;
5971;SDS011;3012;49.944;8.454;2023-11-18T19:55:06;6.77;;;3.97;;
5971;SDS011;3012;49.944;8.454;2023-11-18T19:57:35;11.10;;;4.40;;
5971;SDS011;3012;49.944;8.454;2023-11-18T20:00:03;8.13;;;4.10;;
5971;SDS011;3012;49.944;8.454;2023-11-18T20:02:34;6.13;;;4.13;;
5971;SDS011;3012;49.944;8.454;2023-11-18T20:05:02;8.60;;;4.27;;
5971;SDS011;3012;49.944;8.454;2023-11-18T20:07:32;5.53;;;4.53;;
5971;SDS011;3012;49.944;8.454;2023-11-18T20:10:00;6.93;;;4.60;;
5971;SDS011;3012;49.944;8.454;2023-11-18T20:12:27;4.77;;;4.33;;
5971;SDS011;3012;49.944;8.454;2023-11-18T20:14:58;5.67;;;4.43;;
5971;SDS011;3012;49.944;8.454;2023-11-18T20:17:26;7.40;;;3.93;;
5971;SDS011;3012;49.944;8.454;2023-11-18T20:19:54;7.47;;;3.70;;
5971;SDS011;3012;49.944;8.454;2023-11-18T20:22:23;4.60;;;4.20;;
5971;SDS011;3012;49.944;8.454;2023-11-18T20:24:52;6.43;;;4.20;;
5971;SDS011;3012;49.944;8.454;2023-11-18T20:27:20;9.40;;;4.07;;
5971;SDS011;3012;49.944;8.454;2023-11-18T20:29:49;6.73;;;4.57;;
5971;SDS011;3012;49.944;8.454;2023-11-18T20:32:17;7.50;;;4.57;;
5971;SDS011;3012;49.944;8.454;2023-11-18T20:34:45;7.20;;;4.30;;
5971;SDS011;3012;49.944;8.454;2023-11-18T20:37:13;7.93;;;4.17;;
5971;SDS011;3012;49.944;8.454;2023-11-18T20:39:41;3.97;;;3.67;;
5971;SDS011;3012;49.944;8.454;2023-11-18T20:42:10;5.93;;;4.20;;
5971;SDS011;3012;49.944;8.454;2023-11-18T20:44:38;8.63;;;4.67;;
5971;SDS011;3012;49.944;8.454;2023-11-18T20:47:06;8.60;;;4.87;;
5971;SDS011;3012;49.944;8.454;2023-11-18T20:49:34;4.97;;;4.63;;
5971;SDS011;3012;49.944;8.454;2023-11-18T20:52:02;6.60;;;5.17;;
5971;SDS011;3012;49.944;8.454;2023-11-18T20:54:31;9.83;;;5.27;;
5971;SDS011;3012;49.944;8.454;2023-11-18T20:56:59;7.07;;;5.00;;
5971;SDS011;3012;49.944;8.454;2023-11-18T20:59:28;5.77;;;4.73;;
5971;SDS011;3012;49.944;8.454;2023-11-18T21:01:57;7.37;;;5.83;;
5971;SDS011;3012;49.944;8.454;2023-11-18T21:04:27;7.50;;;4.43;;
5971;SDS011;3012;49.944;8.454;2023-11-18T21:06:56;6.10;;;4.90;;
5971;SDS011;3012;49.944;8.454;2023-11-18T21:09:24;6.37;;;4.70;;
5971;SDS011;3012;49.944;8.454;2023-11-18T21:11:53;7.57;;;4.90;;
5971;SDS011;3012;49.944;8.454;2023-11-18T21:14:46;9.07;;;5.40;;
5971;SDS011;3012;49.944;8.454;2023-11-18T21:17:16;5.77;;;4.83;;
5971;SDS011;3012;49.944;8.454;2023-11-18T21:19:46;10.87;;;5.27;;
5971;SDS011;3012;49.944;8.454;2023-11-18T21:22:14;5.10;;;4.63;;
5971;SDS011;3012;49.944;8.454;2023-11-18T21:24:44;7.60;;;4.83;;
5971;SDS011;3012;49.944;8.454;2023-11-18T21:27:12;11.23;;;4.90;;
5971;SDS011;3012;49.944;8.454;2023-11-18T21:29:41;5.67;;;4.97;;
5971;SDS011;3012;49.944;8.454;2023-11-18T21:32:10;6.80;;;4.93;;
5971;SDS011;3012;49.944;8.454;2023-11-18T21:34:38;5.07;;;4.53;;
5971;SDS011;3012;49.944;8.454;2023-11-18T21:37:09;9.03;;;6.57;;
5971;SDS011;3012;49.944;8.454;2023-11-18T21:39:37;6.27;;;5.67;;
5971;SDS011;3012;49.944;8.454;2023-11-18T21:42:06;8.10;;;5.97;;
5971;SDS011;3012;49.944;8.454;2023-11-18T21:44:34;14.03;;;5.30;;
5971;SDS011;3012;49.944;8.454;2023-11-18T21:47:03;5.03;;;4.63;;
5971;SDS011;3012;49.944;8.454;2023-11-18T21:49:33;7.50;;;5.53;;
5971;SDS011;3012;49.944;8.454;2023-11-18T21:52:01;7.03;;;4.30;;
5971;SDS011;3012;49.944;8.454;2023-11-18T21:54:30;6.40;;;4.40;;
5971;SDS011;3012;49.944;8.454;2023-11-18T21:56:58;7.37;;;4.70;;
5971;SDS011;3012;49.944;8.454;2023-11-18T21:59:26;9.17;;;5.10;;
5971;SDS011;3012;49.944;8.454;2023-11-18T22:01:54;9.03;;;4.80;;
5971;SDS011;3012;49.944;8.454;2023-11-18T22:04:23;5.53;;;4.80;;
5971;SDS011;3012;49.944;8.454;2023-11-18T22:06:52;5.57;;;4.47;;
5971;SDS011;3012;49.944;8.454;2023-11-18T22:09:20;6.10;;;5.03;;
5971;SDS011;3012;49.944;8.454;2023-11-18T22:11:50;4.73;;;4.17;;
5971;SDS011;3012;49.944;8.454;2023-11-18T22:14:20;5.97;;;4.47;;
5971;SDS011;3012;49.944;8.454;2023-11-18T22:16:48;6.90;;;5.00;;
5971;SDS011;3012;49.944;8.454;2023-11-18T22:19:15;6.03;;;4.43;;
5971;SDS011;3012;49.944;8.454;2023-11-18T22:21:44;5.93;;;4.60;;
5971;SDS011;3012;49.944;8.454;2023-11-18T22:24:16;6.17;;;3.90;;
5971;SDS011;3012;49.944;8.454;2023-11-18T22:26:44;6.27;;;4.97;;
5971;SDS011;3012;49.944;8.454;2023-11-18T22:29:12;5.30;;;4.90;;
5971;SDS011;3012;49.944;8.454;2023-11-18T22:31:40;7.17;;;4.37;;
5971;SDS011;3012;49.944;8.454;2023-11-18T22:34:11;9.00;;;6.63;;
5971;SDS011;3012;49.944;8.454;2023-11-18T22:36:39;6.83;;;6.07;;
5971;SDS011;3012;49.944;8.454;2023-11-18T22:39:08;6.90;;;5.17;;
5971;SDS011;3012;49.944;8.454;2023-11-18T22:41:39;6.23;;;4.20;;
5971;SDS011;3012;49.944;8.454;2023-11-18T22:44:07;5.00;;;4.50;;
5971;SDS011;3012;49.944;8.454;2023-11-18T22:46:35;4.90;;;3.17;;
5971;SDS011;3012;49.944;8.454;2023-11-18T22:49:03;4.13;;;3.47;;
5971;SDS011;3012;49.944;8.454;2023-11-18T22:51:36;7.13;;;4.20;;
5971;SDS011;3012;49.944;8.454;2023-11-18T22:54:04;4.30;;;3.83;;
5971;SDS011;3012;49.944;8.454;2023-11-18T22:56:36;5.83;;;3.93;;
5971;SDS011;3012;49.944;8.454;2023-11-18T22:59:06;6.17;;;4.27;;
5971;SDS011;3012;49.944;8.454;2023-11-18T23:01:34;6.60;;;4.00;;
5971;SDS011;3012;49.944;8.454;2023-11-18T23:04:06;7.57;;;4.57;;
5971;SDS011;3012;49.944;8.454;2023-11-18T23:06:38;5.17;;;3.33;;
5971;SDS011;3012;49.944;8.454;2023-11-18T23:09:07;5.93;;;4.77;;
5971;SDS011;3012;49.944;8.454;2023-11-18T23:11:39;9.00;;;5.13;;
5971;SDS011;3012;49.944;8.454;2023-11-18T23:14:08;5.70;;;4.60;;
5971;SDS011;3012;49.944;8.454;2023-11-18T23:16:37;7.43;;;5.07;;
5971;SDS011;3012;49.944;8.454;2023-11-18T23:19:05;6.87;;;5.23;;
5971;SDS011;3012;49.944;8.454;2023-11-18T23:21:34;9.00;;;6.60;;
5971;SDS011;3012;49.944;8.454;2023-11-18T23:24:02;8.50;;;7.20;;
5971;SDS011;3012;49.944;8.454;2023-11-18T23:26:30;8.97;;;7.73;;
5971;SDS011;3012;49.944;8.454;2023-11-18T23:29:00;11.20;;;8.43;;
5971;SDS011;3012;49.944;8.454;2023-11-18T23:31:29;10.00;;;8.20;;
5971;SDS011;3012;49.944;8.454;2023-11-18T23:33:57;11.70;;;8.10;;
5971;SDS011;3012;49.944;8.454;2023-11-18T23:36:27;10.30;;;8.60;;
5971;SDS011;3012;49.944;8.454;2023-11-18T23:38:55;12.80;;;8.17;;
5971;SDS011;3012;49.944;8.454;2023-11-18T23:41:26;11.30;;;7.47;;
5971;SDS011;3012;49.944;8.454;2023-11-18T23:43:55;10.03;;;8.27;;
5971;SDS011;3012;49.944;8.454;2023-11-18T23:46:25;11.03;;;7.90;;
5971;SDS011;3012;49.944;8.454;2023-11-18T23:48:55;10.57;;;7.73;;
5971;SDS011;3012;49.944;8.454;2023-11-18T23:51:23;10.70;;;7.90;;
5971;SDS011;3012;49.944;8.454;2023-11-18T23:53:51;10.33;;;7.07;;
5971;SDS011;3012;49.944;8.454;2023-11-18T23:56:19;11.63;;;7.60;;
5971;SDS011;3012;49.944;8.454;2023-11-18T23:58:48;12.13;;;8.83;;
